Aérodrome :







RETROUVEZ-NOUS SUR...

 
LOGIN :

S'inscrire | Disclaimer

   EN    FR    IT 

 









Légende :    VFR   VFR Marginal   IFR   IFR Intensif   IFR Très Intensif
Visi : 
Plafond : 
>= 8 km
>= 3000ft
5 à 8 km
1000 à 3000 ft
1500m à 5 km
500 à 1000 ft
800 à 1500m
200 à 500 ft
< 800m
< 200 ft
Symboles :   Orages  Brouillard  Fortes neiges  Fortes précipitations  Vent > 20 kt






- Altitude de l'aérodrome : 118 ft
- Code IATA : YUL


CYUL - Montréal - Pierre-Elliott-Trudeau Int.

DERNIER METAR :
  • 230000Z 23013KT 15SM FEW250 00/M04 A3005 RMK CI1 SLP181

METARs EXPIRÉS :
  • 222300Z 23012G18KT 15SM FEW250 01/M05 A3004 RMK CI2 SLP177
  • 222200Z 23011G16KT 30SM FEW170 FEW250 02/M05 A3002 RMK AC1CI2 AC TR SLP171

TAF TAF CYUL
Valide du 23 à 00h jusqu'au 24 à 00h UTC


222338Z 2300/2324 24012KT P6SM SCT040
FM230600 24010KT P6SM SCT020
TEMPO 2306/2312 BKN020
BECMG 2312/2314 24012KT
FM231800 24012KT P6SM BKN020 RMK NXT FCST BY 230300Z
ATIS : ENG : +1 514-633-3037 FRA : +1 514-633-3034



MET'MAP, la Météo Aéronautique d'un coup d'oeil ! - Copyright ORBIFLY Décembre 2007 - Disclaimer

ORBIFLY MET'MAP TEAM :

Programmation & Développement : Alexandra Zaïnal
Sur une idée originale de : Baudouin d'Aumeries
Assistance à la programmation : Marc-Olivier Méhu
Soutien technique & logistique : Manuel Goepfert

Contact : metmap@orbifly.com




SOURCES & CREDITS :

   NOAA